createdAt,value
2017-10-19T00:00:56.075Z,92.80
2017-10-19T00:03:25.117Z,92.80
2017-10-19T00:05:53.366Z,92.10
2017-10-19T00:08:21.632Z,91.70
2017-10-19T00:10:49.887Z,90.60
2017-10-19T00:13:18.218Z,89.50
2017-10-19T00:15:46.481Z,89.70
2017-10-19T00:18:14.756Z,90.40
2017-10-19T00:20:43.024Z,91.00
2017-10-19T00:23:12.131Z,91.60
2017-10-19T00:25:40.695Z,91.30
2017-10-19T00:28:09.739Z,91.60
2017-10-19T00:30:38.000Z,91.60
2017-10-19T00:33:06.271Z,91.80
2017-10-19T00:35:34.588Z,92.00
2017-10-19T00:38:02.858Z,92.10
2017-10-19T00:40:31.169Z,92.20
2017-10-19T00:43:00.021Z,92.20
2017-10-19T00:45:28.279Z,92.40
2017-10-19T00:47:57.422Z,91.90
2017-10-19T00:50:25.694Z,91.90
2017-10-19T00:52:53.963Z,91.80
2017-10-19T00:55:22.273Z,92.00
2017-10-19T00:57:50.548Z,92.40
2017-10-19T01:00:18.807Z,92.60
2017-10-19T01:02:47.080Z,92.80
2017-10-19T01:05:16.090Z,92.40
2017-10-19T01:07:44.397Z,92.40
2017-10-19T01:10:12.671Z,92.40
2017-10-19T01:12:40.959Z,92.40
2017-10-19T01:15:09.326Z,92.50
2017-10-19T01:17:37.614Z,92.10
2017-10-19T01:20:05.899Z,92.00
2017-10-19T01:22:34.183Z,92.20
2017-10-19T01:25:02.488Z,92.40
2017-10-19T01:27:30.850Z,92.50
2017-10-19T01:29:59.131Z,92.60
2017-10-19T01:32:27.397Z,92.80
2017-10-19T01:34:55.650Z,92.50
2017-10-19T01:37:24.789Z,92.20
2017-10-19T01:39:53.048Z,92.20
2017-10-19T01:42:21.359Z,92.10
2017-10-19T01:44:49.615Z,92.10
2017-10-19T01:47:17.892Z,92.10
2017-10-19T01:49:58.098Z,92.40
2017-10-19T01:52:26.389Z,92.80
2017-10-19T01:54:54.640Z,93.10
2017-10-19T01:57:23.025Z,93.20
2017-10-19T01:59:51.319Z,93.20
2017-10-19T02:02:19.580Z,93.20
2017-10-19T02:04:47.838Z,93.10
2017-10-19T02:07:16.151Z,92.70
2017-10-19T02:09:44.402Z,92.80
2017-10-19T02:12:12.672Z,93.10
2017-10-19T02:14:41.714Z,93.10
2017-10-19T02:17:09.986Z,93.10
2017-10-19T02:19:38.249Z,93.10
2017-10-19T02:22:06.542Z,93.10
2017-10-19T02:24:34.835Z,93.00
2017-10-19T02:27:03.103Z,92.90
2017-10-19T02:29:31.347Z,92.60
2017-10-19T02:32:00.382Z,92.80
2017-10-19T02:34:28.661Z,92.80
2017-10-19T02:36:57.088Z,92.70
2017-10-19T02:39:25.344Z,92.60
2017-10-19T02:41:53.723Z,92.40
2017-10-19T02:44:22.001Z,92.40
2017-10-19T02:46:50.256Z,92.00
2017-10-19T02:49:18.517Z,92.00
2017-10-19T02:51:47.575Z,92.00
2017-10-19T02:54:15.843Z,92.00
2017-10-19T02:56:44.131Z,92.00
2017-10-19T02:59:12.418Z,92.00
2017-10-19T03:01:40.670Z,91.50
2017-10-19T03:04:09.002Z,91.20
2017-10-19T03:06:37.371Z,91.00
2017-10-19T03:09:05.752Z,91.20
2017-10-19T03:11:34.039Z,91.30
2017-10-19T03:14:02.319Z,91.30
2017-10-19T03:16:30.575Z,91.50
2017-10-19T03:18:58.855Z,91.70
2017-10-19T03:21:27.163Z,91.90
2017-10-19T03:23:55.544Z,92.10
2017-10-19T03:26:23.815Z,92.00
2017-10-19T03:28:52.090Z,92.10
2017-10-19T03:31:20.349Z,92.10
2017-10-19T03:33:48.662Z,92.00
2017-10-19T03:36:16.943Z,91.90
2017-10-19T03:38:45.222Z,92.20
2017-10-19T03:41:13.920Z,92.20
2017-10-19T03:43:42.204Z,92.10
2017-10-19T03:46:10.458Z,92.00
2017-10-19T03:48:38.793Z,91.90
2017-10-19T03:51:07.028Z,91.90
2017-10-19T03:53:35.297Z,91.70
2017-10-19T03:56:03.560Z,91.70
2017-10-19T03:58:32.602Z,92.00
2017-10-19T04:01:00.892Z,92.00
2017-10-19T04:03:29.202Z,91.80
2017-10-19T04:05:57.443Z,91.60
2017-10-19T04:08:25.715Z,91.50
2017-10-19T04:10:53.998Z,91.40
2017-10-19T04:13:22.293Z,91.60
2017-10-19T04:15:50.574Z,92.40
2017-10-19T04:18:18.845Z,93.20
2017-10-19T04:20:47.107Z,93.50
2017-10-19T04:23:15.422Z,93.60
2017-10-19T04:25:43.672Z,93.70
2017-10-19T04:28:11.971Z,93.70
2017-10-19T04:30:40.259Z,93.80
2017-10-19T04:33:08.638Z,93.90
2017-10-19T04:35:36.895Z,93.90
2017-10-19T04:38:05.170Z,94.00
2017-10-19T04:40:33.482Z,93.90
2017-10-19T04:43:01.766Z,93.80
2017-10-19T04:45:30.042Z,93.70
2017-10-19T04:47:58.338Z,93.80
2017-10-19T04:50:26.613Z,93.70
2017-10-19T04:52:54.906Z,93.60
2017-10-19T04:55:23.970Z,93.50
2017-10-19T04:57:52.255Z,93.50
2017-10-19T05:00:20.559Z,93.60
2017-10-19T05:02:48.846Z,93.80
2017-10-19T05:05:17.123Z,93.90
2017-10-19T05:07:45.395Z,93.80
2017-10-19T05:10:13.651Z,93.70
2017-10-19T05:12:41.968Z,93.60
2017-10-19T05:15:10.243Z,93.60
2017-10-19T05:17:38.522Z,93.60
2017-10-19T05:20:06.814Z,93.50
2017-10-19T05:22:35.078Z,93.60
2017-10-19T05:25:03.340Z,93.50
2017-10-19T05:27:31.595Z,93.60
2017-10-19T05:30:00.675Z,93.40
2017-10-19T05:32:28.984Z,93.40
2017-10-19T05:34:58.592Z,93.30
2017-10-19T05:37:26.894Z,93.30
2017-10-19T05:39:55.207Z,93.30
2017-10-19T05:42:23.490Z,93.40
2017-10-19T05:44:51.867Z,93.30
2017-10-19T05:47:20.153Z,93.30
2017-10-19T05:49:48.554Z,93.30
2017-10-19T05:52:16.916Z,93.20
2017-10-19T05:54:45.419Z,93.20
2017-10-19T05:57:13.691Z,93.10
2017-10-19T05:59:42.119Z,93.10
2017-10-19T06:02:11.192Z,93.60
2017-10-19T06:04:40.290Z,93.60
2017-10-19T06:07:08.543Z,93.60
2017-10-19T06:09:36.818Z,93.50
2017-10-19T06:12:05.100Z,93.30
2017-10-19T06:14:33.402Z,93.30
2017-10-19T06:17:01.660Z,93.30
2017-10-19T06:19:29.954Z,93.20
2017-10-19T06:21:58.206Z,92.90
2017-10-19T06:24:26.480Z,92.60
2017-10-19T06:26:55.524Z,92.50
2017-10-19T06:29:23.809Z,92.50
2017-10-19T06:31:52.315Z,92.50
2017-10-19T06:34:22.509Z,92.40
2017-10-19T06:36:51.901Z,92.90
2017-10-19T06:39:20.202Z,92.50
2017-10-19T06:41:48.474Z,92.50
2017-10-19T06:44:16.744Z,92.40
2017-10-19T06:46:44.998Z,92.40
2017-10-19T06:49:14.044Z,92.20
2017-10-19T06:51:42.357Z,92.20
2017-10-19T06:54:10.621Z,92.30
2017-10-19T06:56:38.873Z,92.20
2017-10-19T06:59:07.145Z,92.20
2017-10-19T07:01:36.172Z,92.10
2017-10-19T07:04:04.439Z,92.10
2017-10-19T07:06:32.697Z,92.00
2017-10-19T07:09:00.972Z,92.00
2017-10-19T07:11:29.229Z,92.00
2017-10-19T07:13:58.259Z,91.80
2017-10-19T07:16:26.519Z,91.80
2017-10-19T07:18:55.570Z,92.00
2017-10-19T07:21:23.893Z,92.00
2017-10-19T07:23:52.187Z,91.60
2017-10-19T07:26:20.716Z,91.40
2017-10-19T07:28:48.983Z,90.90
2017-10-19T07:31:17.317Z,89.40
2017-10-19T07:33:45.568Z,86.70
2017-10-19T07:36:13.825Z,83.70
2017-10-19T07:38:42.232Z,81.80
2017-10-19T07:41:10.523Z,80.60
2017-10-19T07:43:38.774Z,79.30
2017-10-19T07:46:07.128Z,77.50
2017-10-19T07:48:36.162Z,76.80
2017-10-19T07:51:04.486Z,76.70
2017-10-19T07:53:34.268Z,74.70
2017-10-19T07:56:02.515Z,74.70
2017-10-19T07:58:32.375Z,71.50
2017-10-19T08:01:00.678Z,71.50
2017-10-19T08:03:30.579Z,70.20
2017-10-19T08:05:58.886Z,70.20
2017-10-19T08:08:27.143Z,71.00
2017-10-19T08:10:55.402Z,72.20
2017-10-19T08:13:23.707Z,71.50
2017-10-19T08:15:51.959Z,69.30
2017-10-19T08:18:20.232Z,67.40
2017-10-19T08:20:48.539Z,65.90
2017-10-19T08:23:16.815Z,62.90
2017-10-19T08:25:45.093Z,59.90
2017-10-19T08:28:13.360Z,58.80
2017-10-19T08:30:41.614Z,57.30
2017-10-19T08:33:10.630Z,55.80
2017-10-19T08:35:38.902Z,55.70
2017-10-19T08:38:07.914Z,54.00
2017-10-19T08:40:36.217Z,53.90
2017-10-19T08:43:04.504Z,53.60
2017-10-19T08:45:32.778Z,52.50
2017-10-19T08:48:01.028Z,51.90
2017-10-19T08:50:30.160Z,51.10
2017-10-19T08:52:58.406Z,51.10
2017-10-19T08:55:27.435Z,49.80
2017-10-19T08:57:55.726Z,49.80
2017-10-19T09:00:23.997Z,49.60
2017-10-19T09:02:52.248Z,48.90
2017-10-19T09:05:21.379Z,50.40
2017-10-19T09:07:49.767Z,50.40
2017-10-19T09:10:18.062Z,50.80
2017-10-19T09:12:46.413Z,51.70
2017-10-19T09:15:14.671Z,52.40
2017-10-19T09:17:43.688Z,53.60
2017-10-19T09:20:12.403Z,53.50
2017-10-19T09:22:40.716Z,54.60
2017-10-19T09:25:09.952Z,54.60
2017-10-19T09:27:38.474Z,55.20
2017-10-19T09:30:06.743Z,56.50
2017-10-19T09:32:35.055Z,56.50
2017-10-19T09:35:03.338Z,56.90
2017-10-19T09:37:31.606Z,57.30
2017-10-19T09:39:59.866Z,57.60
2017-10-19T09:42:28.111Z,58.30
2017-10-19T09:44:57.162Z,58.90
2017-10-19T09:47:25.444Z,58.60
2017-10-19T09:49:53.716Z,58.80
2017-10-19T09:52:22.007Z,58.80
2017-10-19T09:54:51.235Z,58.30
2017-10-19T09:57:19.481Z,58.40
2017-10-19T09:59:47.807Z,58.60
2017-10-19T10:02:16.026Z,58.60
2017-10-19T10:04:44.336Z,58.20
2017-10-19T10:07:12.588Z,58.40
2017-10-19T10:09:40.869Z,58.60
2017-10-19T10:12:09.888Z,58.60
2017-10-19T10:14:38.170Z,58.60
2017-10-19T10:17:06.459Z,58.50
2017-10-19T10:19:34.747Z,57.70
2017-10-19T10:22:03.846Z,57.10
2017-10-19T10:24:32.235Z,57.30
2017-10-19T10:27:00.469Z,56.50
2017-10-19T10:29:29.507Z,55.10
2017-10-19T10:31:57.763Z,55.10
2017-10-19T10:34:26.130Z,55.80
2017-10-19T10:36:55.235Z,55.70
2017-10-19T10:39:24.273Z,55.90
2017-10-19T10:41:52.552Z,55.90
2017-10-19T10:44:20.812Z,56.60
2017-10-19T10:46:49.118Z,56.90
2017-10-19T10:49:17.478Z,56.50
2017-10-19T10:51:46.250Z,56.80
2017-10-19T10:54:15.289Z,56.20
2017-10-19T10:56:43.537Z,56.20
2017-10-19T10:59:11.806Z,56.80
2017-10-19T11:01:40.840Z,56.50
2017-10-19T11:04:09.103Z,56.50
2017-10-19T11:06:37.357Z,56.70
2017-10-19T11:09:06.391Z,56.80
2017-10-19T11:11:34.653Z,56.80
2017-10-19T11:14:02.960Z,57.10
2017-10-19T11:16:31.243Z,57.40
2017-10-19T11:18:59.526Z,57.00
2017-10-19T11:21:27.771Z,57.00
2017-10-19T11:23:56.803Z,57.50
2017-10-19T11:26:25.078Z,57.50
2017-10-19T11:28:53.363Z,57.10
2017-10-19T11:31:21.644Z,56.50
2017-10-19T11:33:49.898Z,56.50
2017-10-19T11:36:18.166Z,56.50
2017-10-19T11:38:47.201Z,56.70
2017-10-19T11:41:15.461Z,56.70
2017-10-19T11:43:43.767Z,57.10
2017-10-19T11:46:12.042Z,57.20
2017-10-19T11:48:40.303Z,57.00
2017-10-19T11:51:08.572Z,57.30
2017-10-19T11:53:37.624Z,58.00
2017-10-19T11:56:05.879Z,58.00
2017-10-19T11:58:34.135Z,58.60
2017-10-19T12:01:03.268Z,58.40
2017-10-19T12:03:31.556Z,58.40
2017-10-19T12:05:59.823Z,58.70
2017-10-19T12:08:28.127Z,59.20
2017-10-19T12:10:56.495Z,59.10
2017-10-19T12:13:24.746Z,59.60
2017-10-19T12:15:53.050Z,59.80
2017-10-19T12:18:21.383Z,60.10
2017-10-19T12:20:49.651Z,60.80
2017-10-19T12:23:18.125Z,60.30
2017-10-19T12:25:46.391Z,58.20
2017-10-19T12:28:14.639Z,58.00
2017-10-19T12:30:42.919Z,58.00
2017-10-19T12:33:11.175Z,59.30
2017-10-19T12:35:40.228Z,59.20
2017-10-19T12:38:08.504Z,59.20
2017-10-19T12:40:36.768Z,59.40
2017-10-19T12:43:05.020Z,59.40
2017-10-19T12:45:33.356Z,58.80
2017-10-19T12:48:01.630Z,58.00
2017-10-19T12:50:30.010Z,57.90
2017-10-19T12:52:58.264Z,57.90
2017-10-19T12:55:26.575Z,57.60
2017-10-19T12:57:54.829Z,57.20
2017-10-19T13:00:23.133Z,56.90
2017-10-19T13:02:51.383Z,57.30
2017-10-19T13:05:20.410Z,56.60
2017-10-19T13:07:48.673Z,56.60
2017-10-19T13:10:16.967Z,57.10
2017-10-19T13:12:45.223Z,56.70
2017-10-19T13:15:14.274Z,56.80
2017-10-19T13:17:42.528Z,56.80
2017-10-19T13:20:10.819Z,56.50
2017-10-19T13:22:40.011Z,56.50
2017-10-19T13:25:08.284Z,56.30
2017-10-19T13:27:36.549Z,57.00
2017-10-19T13:30:05.577Z,56.50
2017-10-19T13:32:33.830Z,56.50
2017-10-19T13:35:02.152Z,56.70
2017-10-19T13:37:30.528Z,57.30
2017-10-19T13:39:58.854Z,57.10
2017-10-19T13:42:27.902Z,56.40
2017-10-19T13:44:56.169Z,56.90
2017-10-19T13:47:24.423Z,56.90
2017-10-19T13:49:53.480Z,57.20
2017-10-19T13:52:21.753Z,57.20
2017-10-19T13:54:50.017Z,57.10
2017-10-19T13:57:18.305Z,57.10
2017-10-19T13:59:50.427Z,56.90
2017-10-19T14:02:18.758Z,56.90
2017-10-19T14:04:47.027Z,56.70
2017-10-19T14:07:15.331Z,57.00
2017-10-19T14:09:43.607Z,57.00
2017-10-19T14:12:11.859Z,57.20
2017-10-19T14:14:40.130Z,57.00
2017-10-19T14:17:09.160Z,57.30
2017-10-19T14:19:37.440Z,57.80
2017-10-19T14:22:05.737Z,57.40
2017-10-19T14:24:34.010Z,57.70
2017-10-19T14:27:02.292Z,58.00
2017-10-19T14:29:30.686Z,58.20
2017-10-19T14:31:59.333Z,58.40
2017-10-19T14:34:31.048Z,58.60
2017-10-19T14:36:59.309Z,58.60
2017-10-19T14:39:27.615Z,59.00
2017-10-19T14:41:55.888Z,59.40
2017-10-19T14:44:24.151Z,59.50
2017-10-19T14:46:52.495Z,59.60
2017-10-19T14:49:21.538Z,60.00
2017-10-19T14:51:49.817Z,59.80
2017-10-19T14:54:18.668Z,60.70
2017-10-19T14:56:47.922Z,61.30
2017-10-19T14:59:16.166Z,61.30
2017-10-19T15:01:44.435Z,61.80
2017-10-19T15:04:13.472Z,62.50
2017-10-19T15:06:41.751Z,62.50
2017-10-19T15:09:10.019Z,62.70
2017-10-19T15:11:38.315Z,62.70
2017-10-19T15:14:06.571Z,63.10
2017-10-19T15:16:34.897Z,63.70
2017-10-19T15:19:03.436Z,64.20
2017-10-19T15:21:32.484Z,64.90
2017-10-19T15:24:01.013Z,65.00
2017-10-19T15:26:30.127Z,65.30
2017-10-19T15:28:59.144Z,65.40
2017-10-19T15:31:27.490Z,65.40
2017-10-19T15:33:56.588Z,66.10
2017-10-19T15:36:24.933Z,66.10
2017-10-19T15:38:53.201Z,66.20
2017-10-19T15:41:21.563Z,66.60
2017-10-19T15:43:50.935Z,66.50
2017-10-19T15:46:21.012Z,66.40
2017-10-19T15:48:49.269Z,66.60
2017-10-19T15:51:17.540Z,66.70
2017-10-19T15:53:48.595Z,67.10
2017-10-19T15:56:16.999Z,67.00
2017-10-19T15:58:45.293Z,67.20
2017-10-19T16:01:13.572Z,67.60
2017-10-19T16:03:41.830Z,67.70
2017-10-19T16:06:10.131Z,68.10
2017-10-19T16:08:38.392Z,68.90
2017-10-19T16:11:06.691Z,69.30
2017-10-19T16:13:34.985Z,69.50
2017-10-19T16:16:03.251Z,69.90
2017-10-19T16:18:31.520Z,70.20
2017-10-19T16:20:59.817Z,70.30
2017-10-19T16:23:28.098Z,70.90
2017-10-19T16:25:56.419Z,71.00
2017-10-19T16:28:24.659Z,71.20
2017-10-19T16:30:52.981Z,71.80
2017-10-19T16:33:21.418Z,71.70
2017-10-19T16:35:52.982Z,72.30
2017-10-19T16:38:21.243Z,72.30
2017-10-19T16:40:49.510Z,72.20
2017-10-19T16:43:18.530Z,73.50
2017-10-19T16:45:46.794Z,73.40
2017-10-19T16:48:15.151Z,73.60
2017-10-19T16:50:43.486Z,73.80
2017-10-19T16:53:11.744Z,74.30
2017-10-19T16:58:11.699Z,74.80
2017-10-19T17:00:40.641Z,75.00
2017-10-19T17:03:08.899Z,75.00
2017-10-19T17:05:37.163Z,75.50
2017-10-19T17:08:05.453Z,75.40
2017-10-19T17:10:33.736Z,75.50
2017-10-19T17:13:01.991Z,75.70
2017-10-19T17:15:30.308Z,75.90
2017-10-19T17:17:58.576Z,76.40
2017-10-19T17:20:26.843Z,76.90
2017-10-19T17:22:55.151Z,77.40
2017-10-19T17:25:23.429Z,78.00
2017-10-19T17:27:51.682Z,78.50
2017-10-19T17:30:19.996Z,78.50
2017-10-19T17:32:48.281Z,78.90
2017-10-19T17:35:16.544Z,79.60
2017-10-19T17:37:44.809Z,79.90
2017-10-19T17:40:13.840Z,80.50
2017-10-19T17:42:42.136Z,80.40
2017-10-19T17:45:10.398Z,80.70
2017-10-19T17:47:38.675Z,81.10
2017-10-19T17:50:07.053Z,81.30
2017-10-19T17:52:35.319Z,82.00
2017-10-19T17:55:03.628Z,82.20
2017-10-19T17:57:31.911Z,82.70
2017-10-19T18:00:00.156Z,82.50
2017-10-19T18:02:28.424Z,82.60
2017-10-19T18:04:57.464Z,82.50
2017-10-19T18:07:25.731Z,82.30
2017-10-19T18:09:53.982Z,82.50
2017-10-19T18:12:23.027Z,82.70
2017-10-19T18:14:51.337Z,82.70
2017-10-19T18:17:19.584Z,82.70
2017-10-19T18:19:47.841Z,83.00
2017-10-19T18:22:16.143Z,83.20
2017-10-19T18:24:44.395Z,83.20
2017-10-19T18:27:12.708Z,83.30
2017-10-19T18:29:40.979Z,83.40
2017-10-19T18:32:09.280Z,83.10
2017-10-19T18:34:37.539Z,83.00
2017-10-19T18:37:05.811Z,83.10
2017-10-19T18:39:34.110Z,83.70
2017-10-19T18:42:02.382Z,83.60
2017-10-19T18:44:30.791Z,83.80
2017-10-19T18:46:59.157Z,83.50
2017-10-19T18:49:33.180Z,83.40
2017-10-19T18:52:01.452Z,83.40
2017-10-19T18:54:29.738Z,83.30
2017-10-19T18:56:58.022Z,83.30
2017-10-19T18:59:26.272Z,83.10
2017-10-19T19:01:54.546Z,83.00
2017-10-19T19:04:22.795Z,82.90
2017-10-19T19:06:51.130Z,82.80
2017-10-19T19:09:19.418Z,82.50
2017-10-19T19:11:47.691Z,82.30
2017-10-19T19:14:15.943Z,82.00
2017-10-19T19:16:44.972Z,82.50
2017-10-19T19:19:13.295Z,82.50
2017-10-19T19:21:53.924Z,82.70
2017-10-19T19:24:26.469Z,82.70
2017-10-19T19:26:55.527Z,83.80
2017-10-19T19:29:23.849Z,83.80
2017-10-19T19:31:52.675Z,84.20
2017-10-19T19:34:20.962Z,84.00
2017-10-19T19:36:50.349Z,84.40
2017-10-19T19:39:18.590Z,85.00
2017-10-19T19:41:46.858Z,85.30
2017-10-19T19:44:15.192Z,85.60
2017-10-19T19:46:43.454Z,85.50
2017-10-19T19:49:12.492Z,84.20
2017-10-19T19:51:40.919Z,84.20
2017-10-19T19:54:10.791Z,83.30
2017-10-19T19:56:39.055Z,83.30
2017-10-19T19:59:07.313Z,83.20
2017-10-19T20:01:36.346Z,83.00
2017-10-19T20:04:04.687Z,83.00
2017-10-19T20:06:34.556Z,83.70
2017-10-19T20:09:02.808Z,83.70
2017-10-19T20:11:31.076Z,83.70
2017-10-19T20:14:00.119Z,83.00
2017-10-19T20:16:28.387Z,83.00
2017-10-19T20:18:56.682Z,82.90
2017-10-19T20:21:24.954Z,82.70
2017-10-19T20:23:56.447Z,82.90
2017-10-19T20:26:26.307Z,84.20
2017-10-19T20:28:54.616Z,83.30
2017-10-19T20:31:27.651Z,83.50
2017-10-19T20:33:55.910Z,83.70
2017-10-19T20:36:24.180Z,83.80
2017-10-19T20:38:52.484Z,84.00
2017-10-19T20:41:20.726Z,83.90
2017-10-19T20:43:49.007Z,84.10
2017-10-19T20:46:17.279Z,84.40
2017-10-19T20:48:45.573Z,84.70
2017-10-19T20:51:13.851Z,84.80
2017-10-19T20:53:42.101Z,85.00
2017-10-19T20:56:10.391Z,85.30
2017-10-19T20:58:38.644Z,85.40
2017-10-19T21:01:07.684Z,85.40
2017-10-19T21:03:35.951Z,85.30
2017-10-19T21:06:04.284Z,85.40
2017-10-19T21:08:32.543Z,85.50
2017-10-19T21:11:00.812Z,85.70
2017-10-19T21:13:29.095Z,85.80
2017-10-19T21:15:57.338Z,86.10
2017-10-19T21:18:26.378Z,86.10
2017-10-19T21:20:54.878Z,86.00
2017-10-19T21:23:23.164Z,86.20
2017-10-19T21:25:51.414Z,86.20
2017-10-19T21:28:20.935Z,86.40
2017-10-19T21:30:49.189Z,86.40
2017-10-19T21:33:17.458Z,86.50
2017-10-19T21:35:45.780Z,86.60
2017-10-19T21:38:14.036Z,86.70
2017-10-19T21:40:42.300Z,86.80
2017-10-19T21:43:10.564Z,86.80
2017-10-19T21:45:39.592Z,87.00
2017-10-19T21:48:07.856Z,87.00
2017-10-19T21:50:36.119Z,87.00
2017-10-19T21:53:05.173Z,86.90
2017-10-19T21:55:33.416Z,86.80
2017-10-19T21:58:01.704Z,86.60
2017-10-19T22:00:29.953Z,87.00
2017-10-19T22:02:58.227Z,87.10
2017-10-19T22:05:26.483Z,88.00
2017-10-19T22:07:54.750Z,87.40
2017-10-19T22:10:23.001Z,87.50
2017-10-19T22:12:51.270Z,87.90
2017-10-19T22:15:20.286Z,88.30
2017-10-19T22:17:48.592Z,88.30
2017-10-19T22:20:16.842Z,88.50
2017-10-19T22:22:45.106Z,88.70
2017-10-19T22:25:14.126Z,89.00
2017-10-19T22:27:42.389Z,88.90
2017-10-19T22:30:11.428Z,88.90
2017-10-19T22:32:39.695Z,88.80
2017-10-19T22:35:07.949Z,88.70
2017-10-19T22:37:36.985Z,88.90
2017-10-19T22:40:05.269Z,88.90
2017-10-19T22:42:34.335Z,89.00
2017-10-19T22:45:02.589Z,89.20
2017-10-19T22:47:30.854Z,89.00
2017-10-19T22:49:59.110Z,89.00
2017-10-19T22:52:27.384Z,88.90
2017-10-19T22:54:55.685Z,88.90
2017-10-19T22:57:24.338Z,89.10
2017-10-19T22:59:52.640Z,89.20
2017-10-19T23:02:20.902Z,89.30
2017-10-19T23:04:49.202Z,89.40
2017-10-19T23:07:17.461Z,89.40
2017-10-19T23:09:45.720Z,89.40
2017-10-19T23:12:14.757Z,89.70
2017-10-19T23:14:43.021Z,89.60
2017-10-19T23:17:11.303Z,89.70
2017-10-19T23:19:40.299Z,90.00
2017-10-19T23:22:08.568Z,89.80
2017-10-19T23:24:37.608Z,90.00
2017-10-19T23:27:05.874Z,90.00
2017-10-19T23:29:34.128Z,90.00
2017-10-19T23:32:03.374Z,90.00
2017-10-19T23:34:31.624Z,90.00
2017-10-19T23:36:59.901Z,90.10
2017-10-19T23:39:28.915Z,90.10
2017-10-19T23:41:57.205Z,90.10
2017-10-19T23:44:25.487Z,90.20
2017-10-19T23:46:53.764Z,90.20
2017-10-19T23:49:22.032Z,90.20
2017-10-19T23:51:50.337Z,90.20
2017-10-19T23:54:18.610Z,90.20
2017-10-19T23:56:46.895Z,90.30
2017-10-19T23:59:15.191Z,90.30
